Colbert, Oklahoma
Current Conditions -  °F | °C
As of 4:35 AM on Friday 31 Oct 2014 (Local Time) from KDUA Reporting Station
Clear Clear  
Wind Chill: 54°   Ceiling: Unl
Heat Index: 54°   Visibility: 10mi
Dew Point: 41°   Wind: 13mph
Humidity: 62%   Direction: 310°NW
Pressure: 30.21"   Gusts: NA
Location:  33.85°N, 96.5°W
Report Text: KDUA 310935Z AUTO 31011KT 240V020 10SM CLR 12/05 A3021 RMK AO2
Loading
Personal Weather Stations






























Interactive Weather Map
Tropical Storm Tracking
New forecast layout! Learn more

10-Day Weather Forecast

Advertisements
Track Severe Weather on mobile